Time;durP1;ratioP1;P1;durP2;ratioP2;P2;SDS_P1;SDS_P2;PMS_P1;PMS_P2;Temp;Humidity;BMP_temperature;BMP_pressure;BME280_temperature;BME280_humidity;BME280_pressure;Samples;Min_cycle;Max_cycle;Signal;HPM_P1;HPM_P2
2023/12/05 00:01:02;;;;;;;16.00;8.43;;;;;;;;;;6151569;23;20088;-72
2023/12/05 00:03:27;;;;;;;14.55;8.55;;;;;;;;;;6127308;23;20006;-72
2023/12/05 00:05:53;;;;;;;20.00;10.27;;;;;;;;;;6151669;23;20343;-72
2023/12/05 00:08:19;;;;;;;16.83;10.35;;;;;;;;;;6152893;23;20002;-72
2023/12/05 00:10:45;;;;;;;17.42;9.57;;;;;;;;;;6152349;23;20023;-73
2023/12/05 00:13:11;;;;;;;16.98;9.30;;;;;;;;;;6151804;23;20081;-72
2023/12/05 00:15:36;;;;;;;21.92;9.40;;;;;;;;;;6151278;23;20392;-72
2023/12/05 00:18:02;;;;;;;28.35;17.38;;;;;;;;;;6151720;23;20005;-72
2023/12/05 00:20:28;;;;;;;20.50;9.65;;;;;;;;;;6154655;23;20005;-72
2023/12/05 00:22:54;;;;;;;18.00;9.73;;;;;;;;;;6154919;23;20339;-73
2023/12/05 00:25:19;;;;;;;17.30;9.23;;;;;;;;;;6155210;23;20016;-73
2023/12/05 00:27:45;;;;;;;16.88;9.52;;;;;;;;;;6128743;23;20025;-72
2023/12/05 00:30:11;;;;;;;17.35;9.75;;;;;;;;;;6154616;23;20428;-72
2023/12/05 00:32:37;;;;;;;18.08;9.32;;;;;;;;;;6146821;23;20005;-72
2023/12/05 00:35:03;;;;;;;16.65;8.98;;;;;;;;;;6151248;23;20041;-72
2023/12/05 00:37:28;;;;;;;18.63;9.35;;;;;;;;;;6154814;23;20432;-72
2023/12/05 00:39:54;;;;;;;19.55;10.45;;;;;;;;;;6154368;23;20041;-72
2023/12/05 00:42:20;;;;;;;16.50;9.40;;;;;;;;;;6153881;23;20459;-72
2023/12/05 00:44:46;;;;;;;15.13;9.40;;;;;;;;;;6154826;23;20009;-72
2023/12/05 00:47:11;;;;;;;15.00;8.43;;;;;;;;;;6154081;23;20344;-72
2023/12/05 00:49:37;;;;;;;17.52;9.43;;;;;;;;;;6154337;23;20016;-72
2023/12/05 00:52:03;;;;;;;24.65;9.32;;;;;;;;;;6155563;23;20016;-73
2023/12/05 00:54:29;;;;;;;17.25;9.38;;;;;;;;;;6154978;23;20014;-73
2023/12/05 00:56:55;;;;;;;17.60;9.35;;;;;;;;;;6154260;23;20013;-72
2023/12/05 00:59:21;;;;;;;15.52;9.55;;;;;;;;;;6154950;23;20017;-72
2023/12/05 01:01:47;;;;;;;18.23;10.35;;;;;;;;;;6154773;23;20013;-73
2023/12/05 01:04:12;;;;;;;13.65;7.72;;;;;;;;;;6154971;23;20017;-72
2023/12/05 01:06:38;;;;;;;15.23;8.45;;;;;;;;;;6154196;23;20328;-73
2023/12/05 01:09:06;;;;;;;20.17;9.13;;;;;;;;;;6154536;23;20013;-72
2023/12/05 01:11:32;;;;;;;21.88;8.32;;;;;;;;;;6154854;23;20013;-72
2023/12/05 01:13:58;;;;;;;13.00;7.95;;;;;;;;;;6155092;23;20009;-72
2023/12/05 01:16:23;;;;;;;17.55;8.18;;;;;;;;;;6152281;23;20339;-73
2023/12/05 01:18:49;;;;;;;17.52;9.20;;;;;;;;;;6154775;23;20017;-73
2023/12/05 01:21:15;;;;;;;17.55;8.57;;;;;;;;;;6154487;23;20495;-73
2023/12/05 01:23:41;;;;;;;13.25;7.90;;;;;;;;;;6154213;23;20006;-73
2023/12/05 01:26:07;;;;;;;15.75;8.38;;;;;;;;;;6154481;23;20335;-72
2023/12/05 01:28:32;;;;;;;21.77;8.55;;;;;;;;;;6129070;23;20041;-72
2023/12/05 01:30:58;;;;;;;17.95;8.40;;;;;;;;;;6154465;23;20012;-72
2023/12/05 01:33:24;;;;;;;15.07;8.38;;;;;;;;;;6153230;23;20013;-72
2023/12/05 01:35:49;;;;;;;15.27;9.30;;;;;;;;;;6152009;23;20487;-73
2023/12/05 01:38:18;;;;;;;14.60;8.65;;;;;;;;;;6154075;23;20101;-73
2023/12/05 01:40:44;;;;;;;17.15;8.13;;;;;;;;;;6154778;23;20013;-73
2023/12/05 01:43:10;;;;;;;19.52;8.52;;;;;;;;;;6154917;23;20306;-73
2023/12/05 01:45:36;;;;;;;16.80;8.45;;;;;;;;;;6153745;23;20015;-73
2023/12/05 01:48:04;;;;;;;16.58;8.77;;;;;;;;;;6154538;23;20013;-73
2023/12/05 01:50:31;;;;;;;15.95;8.10;;;;;;;;;;6153824;23;20084;-71
2023/12/05 01:52:59;;;;;;;15.35;7.85;;;;;;;;;;6154249;23;20391;-72
2023/12/05 01:55:28;;;;;;;14.18;8.32;;;;;;;;;;6153755;23;20156;-72
2023/12/05 01:57:54;;;;;;;14.68;7.25;;;;;;;;;;6154138;23;20064;-72
2023/12/05 02:00:21;;;;;;;13.55;7.32;;;;;;;;;;6154394;23;20010;-72
2023/12/05 02:02:49;;;;;;;14.40;8.20;;;;;;;;;;6153689;23;20462;-71
2023/12/05 02:05:15;;;;;;;15.07;7.32;;;;;;;;;;6153765;23;20093;-72
2023/12/05 02:07:41;;;;;;;24.58;8.73;;;;;;;;;;6153825;23;20057;-71
2023/12/05 02:10:09;;;;;;;17.73;8.00;;;;;;;;;;6154061;23;20060;-72
2023/12/05 02:12:38;;;;;;;15.90;8.00;;;;;;;;;;6154497;23;20021;-72
2023/12/05 02:15:05;;;;;;;16.15;8.38;;;;;;;;;;6103131;23;20080;-71
2023/12/05 02:17:35;;;;;;;20.80;8.05;;;;;;;;;;6153320;23;20013;-71
2023/12/05 02:20:14;;;;;;;17.73;8.73;;;;;;;;;;6154172;23;20044;-72
2023/12/05 02:22:42;;;;;;;16.23;8.98;;;;;;;;;;6154446;23;20033;-72
2023/12/05 02:25:42;;;;;;;14.60;8.07;;;;;;;;;;6153666;23;20088;-72
2023/12/05 02:28:09;;;;;;;15.73;8.73;;;;;;;;;;6153922;23;20040;-72
2023/12/05 02:30:35;;;;;;;21.20;9.60;;;;;;;;;;6154220;23;20480;-71
2023/12/05 02:33:01;;;;;;;20.20;9.35;;;;;;;;;;6153810;23;20041;-72
2023/12/05 02:35:27;;;;;;;15.82;9.20;;;;;;;;;;6153588;23;20017;-72
2023/12/05 02:38:05;;;;;;;17.00;8.75;;;;;;;;;;6153912;23;20013;-72
2023/12/05 02:40:40;;;;;;;18.15;9.27;;;;;;;;;;6153536;23;20017;-72
2023/12/05 02:43:12;;;;;;;16.17;9.40;;;;;;;;;;6153682;23;20017;-72
2023/12/05 02:45:40;;;;;;;17.85;9.77;;;;;;;;;;6153268;23;20463;-72
2023/12/05 02:48:09;;;;;;;15.13;8.98;;;;;;;;;;6153188;23;20333;-72
2023/12/05 02:50:35;;;;;;;17.27;9.75;;;;;;;;;;6153625;23;20022;-72
2023/12/05 02:53:01;;;;;;;16.15;8.40;;;;;;;;;;6153481;23;20076;-72
2023/12/05 02:55:26;;;;;;;17.83;8.85;;;;;;;;;;6126826;23;20048;-72
2023/12/05 02:57:52;;;;;;;15.80;8.80;;;;;;;;;;6153633;23;20036;-73
2023/12/05 03:00:19;;;;;;;14.68;8.90;;;;;;;;;;6153379;23;20084;-72
2023/12/05 03:02:44;;;;;;;17.65;9.30;;;;;;;;;;6153396;23;20005;-72
2023/12/05 03:05:10;;;;;;;16.90;8.80;;;;;;;;;;6153965;23;20010;-73
2023/12/05 03:07:36;;;;;;;14.02;8.48;;;;;;;;;;6152668;23;20024;-72
2023/12/05 03:10:04;;;;;;;14.90;7.68;;;;;;;;;;6152747;23;20012;-71
2023/12/05 03:12:33;;;;;;;14.95;8.18;;;;;;;;;;6152611;23;20002;-71
2023/12/05 03:15:00;;;;;;;16.17;8.00;;;;;;;;;;6153905;23;20061;-74
2023/12/05 03:17:26;;;;;;;16.05;8.30;;;;;;;;;;6153164;23;20013;-72
2023/12/05 03:19:51;;;;;;;18.17;8.55;;;;;;;;;;6154653;23;20021;-72
2023/12/05 03:22:17;;;;;;;24.10;9.13;;;;;;;;;;6154274;23;20352;-71
2023/12/05 03:24:43;;;;;;;21.20;9.00;;;;;;;;;;6153720;23;20064;-71
2023/12/05 03:27:09;;;;;;;19.45;8.93;;;;;;;;;;6154437;23;20185;-71
2023/12/05 03:29:34;;;;;;;14.20;7.60;;;;;;;;;;6154369;23;20080;-72
2023/12/05 03:32:01;;;;;;;17.05;8.63;;;;;;;;;;6154267;23;20001;-72
2023/12/05 03:34:26;;;;;;;16.80;8.73;;;;;;;;;;6153920;23;20013;-71
2023/12/05 03:36:52;;;;;;;33.97;10.50;;;;;;;;;;6153777;23;20011;-72
2023/12/05 03:39:18;;;;;;;15.82;7.78;;;;;;;;;;6154034;23;20344;-71
2023/12/05 03:41:46;;;;;;;16.80;8.82;;;;;;;;;;6154745;23;20006;-71
2023/12/05 03:44:11;;;;;;;21.65;8.25;;;;;;;;;;6154140;23;20089;-71
2023/12/05 03:46:37;;;;;;;15.05;8.25;;;;;;;;;;6154015;23;20043;-71
2023/12/05 03:49:03;;;;;;;17.35;8.25;;;;;;;;;;6152375;23;20090;-72
2023/12/05 03:51:30;;;;;;;12.38;7.78;;;;;;;;;;6153506;23;20043;-71
2023/12/05 03:53:56;;;;;;;22.63;8.20;;;;;;;;;;6155313;23;20017;-71
2023/12/05 03:56:22;;;;;;;15.27;8.52;;;;;;;;;;6154799;23;20006;-71
2023/12/05 03:58:47;;;;;;;17.80;7.70;;;;;;;;;;6128997;23;20017;-72
2023/12/05 04:01:13;;;;;;;24.08;9.70;;;;;;;;;;6155068;23;20364;-72
2023/12/05 04:03:39;;;;;;;24.35;8.63;;;;;;;;;;6154664;23;20009;-72
2023/12/05 04:06:05;;;;;;;19.17;8.45;;;;;;;;;;6154930;23;20171;-72
2023/12/05 04:08:31;;;;;;;19.08;8.52;;;;;;;;;;6155040;23;20079;-72
2023/12/05 04:10:57;;;;;;;20.13;8.43;;;;;;;;;;6152964;23;20088;-72
2023/12/05 04:13:22;;;;;;;13.75;7.75;;;;;;;;;;6154469;23;20055;-73
2023/12/05 04:15:48;;;;;;;16.67;8.15;;;;;;;;;;6155049;23;20013;-72
2023/12/05 04:18:14;;;;;;;15.05;7.68;;;;;;;;;;6155251;23;20336;-72
2023/12/05 04:20:39;;;;;;;16.05;7.80;;;;;;;;;;6154059;23;20009;-71
2023/12/05 04:23:05;;;;;;;21.70;9.27;;;;;;;;;;6155149;23;20025;-72
2023/12/05 04:25:31;;;;;;;21.65;9.25;;;;;;;;;;6154984;23;20029;-72
2023/12/05 04:27:56;;;;;;;14.93;7.90;;;;;;;;;;6155192;23;20009;-72
2023/12/05 04:30:22;;;;;;;15.05;8.38;;;;;;;;;;6156335;23;20052;-72
2023/12/05 04:32:48;;;;;;;15.15;7.97;;;;;;;;;;6155353;23;20021;-72
2023/12/05 04:35:15;;;;;;;12.82;7.03;;;;;;;;;;6154637;23;20219;-72
2023/12/05 04:37:41;;;;;;;12.52;7.13;;;;;;;;;;6154945;23;20009;-72
2023/12/05 04:40:08;;;;;;;16.70;8.40;;;;;;;;;;6154597;23;20060;-72
2023/12/05 04:42:34;;;;;;;22.38;8.25;;;;;;;;;;6154581;23;20101;-71
2023/12/05 04:44:59;;;;;;;24.08;8.45;;;;;;;;;;6154157;23;20028;-72
2023/12/05 04:47:25;;;;;;;19.65;8.52;;;;;;;;;;6154855;23;20275;-72
2023/12/05 04:49:51;;;;;;;24.42;8.75;;;;;;;;;;6154767;23;20010;-72
2023/12/05 04:52:17;;;;;;;24.27;9.15;;;;;;;;;;6154729;23;20340;-72
2023/12/05 04:54:43;;;;;;;27.98;9.20;;;;;;;;;;6154382;23;20012;-71
2023/12/05 04:57:10;;;;;;;20.48;8.35;;;;;;;;;;6154758;23;20036;-72
2023/12/05 04:59:35;;;;;;;31.65;9.63;;;;;;;;;;6154583;23;20384;-72
2023/12/05 05:02:01;;;;;;;34.53;10.25;;;;;;;;;;6154876;23;20391;-72
2023/12/05 05:04:27;;;;;;;23.58;9.98;;;;;;;;;;6153759;23;20392;-71
2023/12/05 05:06:52;;;;;;;23.25;10.18;;;;;;;;;;6154077;23;20012;-72
2023/12/05 05:09:18;;;;;;;19.92;8.85;;;;;;;;;;6154455;23;20020;-73
2023/12/05 05:11:44;;;;;;;26.00;9.25;;;;;;;;;;6154482;23;20093;-72
2023/12/05 05:14:09;;;;;;;20.90;10.18;;;;;;;;;;6154797;23;20011;-72
2023/12/05 05:16:35;;;;;;;28.73;9.70;;;;;;;;;;6152560;23;20467;-72
2023/12/05 05:19:01;;;;;;;23.27;9.15;;;;;;;;;;6153931;23;20009;-72
2023/12/05 05:21:27;;;;;;;26.45;11.68;;;;;;;;;;6153677;23;20033;-72
2023/12/05 05:23:52;;;;;;;28.45;10.70;;;;;;;;;;6154195;23;20033;-72
2023/12/05 05:26:18;;;;;;;21.58;10.60;;;;;;;;;;6154002;23;20013;-72
2023/12/05 05:28:44;;;;;;;25.30;10.07;;;;;;;;;;6154252;23;20005;-72
2023/12/05 05:31:10;;;;;;;25.92;10.30;;;;;;;;;;6128105;23;20020;-72
2023/12/05 05:33:36;;;;;;;22.98;10.32;;;;;;;;;;6154098;23;20017;-72
2023/12/05 05:36:01;;;;;;;24.85;10.43;;;;;;;;;;6152982;23;20013;-72
2023/12/05 05:38:28;;;;;;;30.05;10.77;;;;;;;;;;6153173;23;20040;-72
2023/12/05 05:41:03;;;;;;;21.58;10.65;;;;;;;;;;6153961;23;20009;-76
2023/12/05 05:43:29;;;;;;;26.33;10.90;;;;;;;;;;6128005;23;20347;-75
2023/12/05 05:45:55;;;;;;;18.75;8.95;;;;;;;;;;6153872;23;20033;-75
2023/12/05 05:48:21;;;;;;;20.42;10.02;;;;;;;;;;6151964;23;20013;-77
2023/12/05 05:50:46;;;;;;;14.25;8.48;;;;;;;;;;6152333;23;20009;-76
2023/12/05 05:53:14;;;;;;;18.20;10.73;;;;;;;;;;6128678;23;20157;-76
2023/12/05 05:55:39;;;;;;;15.07;8.55;;;;;;;;;;6152944;23;20084;-76
2023/12/05 05:58:05;;;;;;;15.75;9.43;;;;;;;;;;6154278;23;20017;-76
2023/12/05 06:00:31;;;;;;;17.95;9.68;;;;;;;;;;6154210;23;20017;-76
2023/12/05 06:02:57;;;;;;;22.75;10.02;;;;;;;;;;6153990;23;20112;-75
2023/12/05 06:05:24;;;;;;;22.38;9.80;;;;;;;;;;6154540;23;20001;-75
2023/12/05 06:07:50;;;;;;;19.95;10.38;;;;;;;;;;6152815;23;20009;-75
2023/12/05 06:10:16;;;;;;;18.02;9.90;;;;;;;;;;6154444;23;20005;-77
2023/12/05 06:12:42;;;;;;;15.57;9.45;;;;;;;;;;6144592;23;20026;-77
2023/12/05 06:15:08;;;;;;;18.67;10.57;;;;;;;;;;6124270;23;20012;-76
2023/12/05 06:17:36;;;;;;;23.13;11.85;;;;;;;;;;6099017;23;20017;-74
2023/12/05 06:20:02;;;;;;;22.42;11.88;;;;;;;;;;6124589;23;20010;-76
2023/12/05 06:22:28;;;;;;;17.33;10.60;;;;;;;;;;6125411;23;20025;-75
2023/12/05 06:24:55;;;;;;;21.40;11.27;;;;;;;;;;6124655;23;20060;-75
2023/12/05 06:27:24;;;;;;;17.55;11.07;;;;;;;;;;6124755;23;20314;-76
2023/12/05 06:29:50;;;;;;;17.95;10.88;;;;;;;;;;6122874;23;20012;-74
2023/12/05 06:32:16;;;;;;;21.40;11.25;;;;;;;;;;6122764;23;20400;-76
2023/12/05 06:34:42;;;;;;;24.60;11.30;;;;;;;;;;6124808;23;20002;-77
2023/12/05 06:37:08;;;;;;;16.67;10.13;;;;;;;;;;6124439;23;20433;-77
2023/12/05 06:39:35;;;;;;;22.23;10.77;;;;;;;;;;6125253;23;20056;-76
2023/12/05 06:42:01;;;;;;;18.27;10.60;;;;;;;;;;6125427;23;20027;-76
2023/12/05 06:44:28;;;;;;;21.95;13.02;;;;;;;;;;6100015;23;20002;-76
2023/12/05 06:46:53;;;;;;;29.23;12.63;;;;;;;;;;6124520;23;20344;-75
2023/12/05 06:49:19;;;;;;;20.70;12.48;;;;;;;;;;6125239;23;20006;-77
2023/12/05 06:51:46;;;;;;;20.25;11.68;;;;;;;;;;6125352;23;20021;-77
2023/12/05 06:54:12;;;;;;;22.10;12.13;;;;;;;;;;6125411;23;20001;-75
2023/12/05 06:56:38;;;;;;;29.77;13.15;;;;;;;;;;6125687;23;20014;-77
2023/12/05 06:59:03;;;;;;;27.27;12.40;;;;;;;;;;6126140;23;20012;-77
2023/12/05 07:01:29;;;;;;;21.90;11.70;;;;;;;;;;6124713;23;20014;-77
2023/12/05 07:03:55;;;;;;;22.70;12.38;;;;;;;;;;6125049;23;20020;-77
2023/12/05 07:06:21;;;;;;;18.77;11.05;;;;;;;;;;6124300;23;20031;-76
2023/12/05 07:08:48;;;;;;;23.65;10.73;;;;;;;;;;6124947;23;20002;-76
2023/12/05 07:11:14;;;;;;;14.35;9.27;;;;;;;;;;6124619;23;20010;-77
2023/12/05 07:13:39;;;;;;;21.70;10.57;;;;;;;;;;6098339;23;20476;-77
2023/12/05 07:16:06;;;;;;;15.57;9.25;;;;;;;;;;6124108;23;20061;-76
2023/12/05 07:18:31;;;;;;;16.00;10.23;;;;;;;;;;6122478;23;20010;-77
2023/12/05 07:20:58;;;;;;;17.92;11.43;;;;;;;;;;6124354;23;20085;-77
2023/12/05 07:23:24;;;;;;;17.38;9.25;;;;;;;;;;6124167;23;20041;-77
2023/12/05 07:25:50;;;;;;;18.08;9.82;;;;;;;;;;6122705;23;20025;-76
2023/12/05 07:28:17;;;;;;;27.60;10.75;;;;;;;;;;6124056;23;20002;-76
2023/12/05 07:30:43;;;;;;;19.60;10.43;;;;;;;;;;6124635;23;20348;-76
2023/12/05 07:33:09;;;;;;;18.50;10.40;;;;;;;;;;6124810;23;20332;-77
2023/12/05 07:35:34;;;;;;;19.83;11.27;;;;;;;;;;6124342;23;20340;-76
2023/12/05 07:38:00;;;;;;;18.58;10.23;;;;;;;;;;6122499;23;20013;-77
2023/12/05 07:40:26;;;;;;;23.10;11.15;;;;;;;;;;6124620;23;20443;-76
2023/12/05 07:42:52;;;;;;;19.15;10.32;;;;;;;;;;6123048;23;20499;-76
2023/12/05 07:45:17;;;;;;;23.42;11.73;;;;;;;;;;6124402;23;20006;-76
2023/12/05 07:47:47;;;;;;;19.35;10.98;;;;;;;;;;6122758;23;20012;-76
2023/12/05 07:50:13;;;;;;;22.50;12.18;;;;;;;;;;6124641;23;20014;-77
2023/12/05 07:52:40;;;;;;;19.30;10.90;;;;;;;;;;6124767;23;20010;-77
2023/12/05 07:55:06;;;;;;;21.02;11.27;;;;;;;;;;6124164;23;20025;-75
2023/12/05 07:57:31;;;;;;;20.42;11.18;;;;;;;;;;6124285;23;20029;-77
2023/12/05 07:59:59;;;;;;;20.65;11.82;;;;;;;;;;6124011;23;20020;-76
2023/12/05 08:02:26;;;;;;;18.33;10.95;;;;;;;;;;6098792;23;20057;-77
2023/12/05 08:04:52;;;;;;;19.70;11.15;;;;;;;;;;6124544;23;20010;-75
2023/12/05 08:07:18;;;;;;;17.85;12.23;;;;;;;;;;6122954;23;20002;-75
2023/12/05 08:09:45;;;;;;;28.35;11.27;;;;;;;;;;6122427;23;20025;-76
2023/12/05 08:12:11;;;;;;;22.92;12.43;;;;;;;;;;6123300;23;20005;-75
2023/12/05 08:14:39;;;;;;;35.80;11.38;;;;;;;;;;6124043;23;20017;-76
2023/12/05 08:17:05;;;;;;;25.15;11.77;;;;;;;;;;6124729;23;20002;-77
2023/12/05 08:19:30;;;;;;;22.35;10.30;;;;;;;;;;6124732;23;20006;-77
2023/12/05 08:21:56;;;;;;;20.38;10.63;;;;;;;;;;6125772;23;20391;-77
2023/12/05 08:24:23;;;;;;;35.38;11.43;;;;;;;;;;6125279;23;20017;-76
2023/12/05 08:26:48;;;;;;;34.17;10.02;;;;;;;;;;6122966;23;20427;-76
2023/12/05 08:29:14;;;;;;;19.48;9.23;;;;;;;;;;6098506;23;20010;-76
2023/12/05 08:31:40;;;;;;;36.92;10.05;;;;;;;;;;6123456;23;20084;-77
2023/12/05 08:34:06;;;;;;;27.92;9.68;;;;;;;;;;6124669;23;20025;-76
2023/12/05 08:36:31;;;;;;;33.30;10.70;;;;;;;;;;6125646;23;20398;-78
2023/12/05 08:38:58;;;;;;;30.88;9.60;;;;;;;;;;6125231;23;20014;-77
2023/12/05 08:41:24;;;;;;;52.53;12.27;;;;;;;;;;6125913;23;20009;-78
2023/12/05 08:43:50;;;;;;;29.58;10.88;;;;;;;;;;6125839;23;20096;-77
2023/12/05 08:46:16;;;;;;;23.10;9.27;;;;;;;;;;6125634;23;20032;-77
2023/12/05 08:48:42;;;;;;;30.83;11.60;;;;;;;;;;6098972;23;20022;-77
2023/12/05 08:51:07;;;;;;;26.75;10.95;;;;;;;;;;6125619;23;20002;-77
2023/12/05 08:53:33;;;;;;;21.42;10.10;;;;;;;;;;6124587;23;20039;-77
2023/12/05 08:55:59;;;;;;;31.92;10.90;;;;;;;;;;6124743;23;20013;-77
2023/12/05 08:58:25;;;;;;;38.25;12.50;;;;;;;;;;6125695;23;20326;-77
2023/12/05 09:00:50;;;;;;;39.38;13.85;;;;;;;;;;6099251;23;20056;-77
2023/12/05 09:03:16;;;;;;;27.95;12.02;;;;;;;;;;6123696;23;20321;-77
2023/12/05 09:05:43;;;;;;;28.92;12.75;;;;;;;;;;6124693;23;20385;-77
2023/12/05 09:08:10;;;;;;;20.88;10.55;;;;;;;;;;6124957;23;20085;-77
2023/12/05 09:10:36;;;;;;;15.85;9.40;;;;;;;;;;6100133;23;20073;-77
2023/12/05 09:13:02;;;;;;;24.20;9.50;;;;;;;;;;6125607;23;20440;-77
2023/12/05 09:15:29;;;;;;;24.90;10.98;;;;;;;;;;6125925;23;20008;-78
2023/12/05 09:17:54;;;;;;;17.30;9.40;;;;;;;;;;6124964;23;20097;-77
2023/12/05 09:20:20;;;;;;;17.02;10.13;;;;;;;;;;6124496;23;20065;-77
2023/12/05 09:22:46;;;;;;;15.77;9.02;;;;;;;;;;6125275;23;20017;-78
2023/12/05 09:25:12;;;;;;;16.83;9.70;;;;;;;;;;6098584;23;20020;-77
2023/12/05 09:27:37;;;;;;;14.57;9.15;;;;;;;;;;6125867;23;20006;-76
2023/12/05 09:30:03;;;;;;;21.83;11.18;;;;;;;;;;6125754;23;20006;-76
2023/12/05 09:32:29;;;;;;;20.33;12.13;;;;;;;;;;6125806;23;20033;-76
2023/12/05 09:34:55;;;;;;;25.65;14.68;;;;;;;;;;6099163;23;20017;-76
2023/12/05 09:37:21;;;;;;;26.27;12.52;;;;;;;;;;6125031;23;20060;-76
2023/12/05 09:39:47;;;;;;;19.35;12.73;;;;;;;;;;6125303;23;20072;-76
2023/12/05 09:42:13;;;;;;;22.98;10.75;;;;;;;;;;6075017;23;20091;-75
2023/12/05 09:44:45;;;;;;;14.77;9.63;;;;;;;;;;6125305;23;20006;-76
2023/12/05 09:47:12;;;;;;;25.27;11.75;;;;;;;;;;6124528;23;20010;-77
2023/12/05 09:49:40;;;;;;;21.95;11.38;;;;;;;;;;6123494;23;20045;-77
2023/12/05 09:52:06;;;;;;;19.08;10.05;;;;;;;;;;6125167;23;20020;-77
2023/12/05 09:54:33;;;;;;;23.05;10.45;;;;;;;;;;6126226;23;20140;-78
2023/12/05 09:56:59;;;;;;;24.30;10.75;;;;;;;;;;6125252;23;20052;-77
2023/12/05 09:59:26;;;;;;;20.88;10.05;;;;;;;;;;6099397;23;20013;-77
2023/12/05 10:01:56;;;;;;;15.38;9.50;;;;;;;;;;6125522;23;20021;-76
2023/12/05 10:04:26;;;;;;;22.27;9.98;;;;;;;;;;6126015;23;20263;-76
2023/12/05 10:06:52;;;;;;;13.07;8.32;;;;;;;;;;6126535;23;20018;-78
2023/12/05 10:09:21;;;;;;;18.75;8.43;;;;;;;;;;6098335;23;20030;-77
2023/12/05 10:11:48;;;;;;;23.27;10.38;;;;;;;;;;6099214;23;20029;-76
2023/12/05 10:14:15;;;;;;;20.20;9.73;;;;;;;;;;6124271;23;20031;-76
2023/12/05 10:16:43;;;;;;;15.73;8.85;;;;;;;;;;6124913;23;20463;-77
2023/12/05 10:19:09;;;;;;;20.52;9.50;;;;;;;;;;6125051;23;20034;-76
2023/12/05 10:21:36;;;;;;;12.77;9.15;;;;;;;;;;6123223;23;20018;-77
2023/12/05 10:24:03;;;;;;;21.42;10.18;;;;;;;;;;6125187;23;20010;-77
2023/12/05 10:26:29;;;;;;;16.65;8.00;;;;;;;;;;6124770;23;20081;-76
2023/12/05 10:28:56;;;;;;;25.58;9.10;;;;;;;;;;6125301;23;20082;-76
2023/12/05 10:31:23;;;;;;;12.82;8.32;;;;;;;;;;6125366;23;20436;-76
2023/12/05 10:33:49;;;;;;;13.52;7.47;;;;;;;;;;6125105;23;20057;-76
2023/12/05 10:36:16;;;;;;;17.27;8.77;;;;;;;;;;6124868;23;20436;-77
2023/12/05 10:38:46;;;;;;;10.63;7.10;;;;;;;;;;6122846;23;19998;-75
2023/12/05 10:41:20;;;;;;;21.30;8.20;;;;;;;;;;6125413;23;20014;-76
2023/12/05 10:43:49;;;;;;;15.27;8.20;;;;;;;;;;6124850;23;20013;-77
2023/12/05 10:46:15;;;;;;;21.02;9.10;;;;;;;;;;6121978;23;20081;-76
2023/12/05 10:48:41;;;;;;;18.85;10.15;;;;;;;;;;6099026;23;20009;-77
2023/12/05 10:51:08;;;;;;;24.52;11.93;;;;;;;;;;6099386;23;20006;-77
2023/12/05 10:53:37;;;;;;;21.85;12.13;;;;;;;;;;6124105;23;20028;-75
2023/12/05 10:56:14;;;;;;;22.80;11.68;;;;;;;;;;6098384;23;20006;-77
2023/12/05 10:58:44;;;;;;;24.88;12.95;;;;;;;;;;6124063;23;20183;-78
2023/12/05 11:01:11;;;;;;;29.58;12.27;;;;;;;;;;6123371;23;20014;-77
2023/12/05 11:03:38;;;;;;;18.02;10.13;;;;;;;;;;6124055;23;20032;-77
2023/12/05 11:06:05;;;;;;;35.08;11.90;;;;;;;;;;6123911;23;20009;-76
2023/12/05 11:08:32;;;;;;;12.82;7.15;;;;;;;;;;6122985;23;20037;-78
2023/12/05 11:11:01;;;;;;;20.58;8.52;;;;;;;;;;6124124;23;20020;-77
2023/12/05 11:13:31;;;;;;;14.25;8.35;;;;;;;;;;6122460;23;20149;-76
2023/12/05 11:16:08;;;;;;;11.23;7.32;;;;;;;;;;6122175;23;20012;-76
2023/12/05 11:18:36;;;;;;;17.13;6.85;;;;;;;;;;6124171;23;20014;-76
2023/12/05 11:21:36;;;;;;;23.48;7.57;;;;;;;;;;6126002;23;20055;-76
2023/12/05 11:24:14;;;;;;;16.30;6.82;;;;;;;;;;6124408;23;20113;-76
2023/12/05 11:27:21;;;;;;;8.73;5.80;;;;;;;;;;6124332;23;20006;-73
2023/12/05 11:30:03;;;;;;;15.93;7.15;;;;;;;;;;6123452;23;20093;-73
2023/12/05 11:32:48;;;;;;;23.15;7.97;;;;;;;;;;6123587;23;20010;-73
2023/12/05 11:35:40;;;;;;;20.55;6.75;;;;;;;;;;6123025;23;20496;-72
2023/12/05 11:38:14;;;;;;;9.48;5.57;;;;;;;;;;6124150;23;20018;-72
2023/12/05 11:40:40;;;;;;;16.40;6.13;;;;;;;;;;6124261;23;20037;-72
2023/12/05 11:43:14;;;;;;;15.02;7.60;;;;;;;;;;6124201;23;20376;-73
2023/12/05 11:45:42;;;;;;;14.13;6.00;;;;;;;;;;6122210;23;20042;-74
2023/12/05 11:48:13;;;;;;;11.98;6.55;;;;;;;;;;6123988;23;20301;-73
2023/12/05 11:50:45;;;;;;;14.35;6.28;;;;;;;;;;6124114;23;20014;-71
2023/12/05 11:53:15;;;;;;;14.07;6.78;;;;;;;;;;6123010;23;20118;-72
2023/12/05 11:55:46;;;;;;;13.38;6.63;;;;;;;;;;6096125;23;20018;-73
2023/12/05 11:58:25;;;;;;;9.95;6.10;;;;;;;;;;6097565;23;20041;-73
2023/12/05 12:01:00;;;;;;;21.70;7.78;;;;;;;;;;6094783;23;20010;-73
2023/12/05 12:03:27;;;;;;;14.25;6.72;;;;;;;;;;6123122;23;20475;-73
2023/12/05 12:06:03;;;;;;;13.43;5.65;;;;;;;;;;6122925;23;20005;-73
2023/12/05 12:08:30;;;;;;;10.57;5.90;;;;;;;;;;6121870;23;20093;-73
2023/12/05 12:10:57;;;;;;;20.95;6.60;;;;;;;;;;6118082;23;20013;-72
2023/12/05 12:13:22;;;;;;;24.92;6.63;;;;;;;;;;6122776;23;20010;-72
2023/12/05 12:15:48;;;;;;;10.57;5.45;;;;;;;;;;6096603;23;20385;-72
2023/12/05 12:18:25;;;;;;;13.20;5.70;;;;;;;;;;6125352;23;20487;-73
2023/12/05 12:20:52;;;;;;;11.40;5.90;;;;;;;;;;6125008;23;20014;-71
2023/12/05 12:23:21;;;;;;;13.85;6.43;;;;;;;;;;6098287;23;20084;-73
2023/12/05 12:25:53;;;;;;;15.52;6.38;;;;;;;;;;6124015;23;20009;-73
2023/12/05 12:28:29;;;;;;;17.47;6.37;;;;;;;;;;6124069;23;20010;-72
2023/12/05 12:30:59;;;;;;;11.80;5.10;;;;;;;;;;6123919;23;20049;-74
2023/12/05 12:33:41;;;;;;;13.10;5.70;;;;;;;;;;6124243;23;20006;-72
2023/12/05 12:36:09;;;;;;;25.83;7.47;;;;;;;;;;6124284;23;20441;-73
2023/12/05 12:38:35;;;;;;;18.38;6.05;;;;;;;;;;6099309;23;20045;-73
2023/12/05 12:41:01;;;;;;;28.88;8.25;;;;;;;;;;6123178;23;20017;-74
2023/12/05 12:43:29;;;;;;;11.88;6.07;;;;;;;;;;6125216;23;20078;-74
2023/12/05 12:45:55;;;;;;;12.80;6.25;;;;;;;;;;6123574;23;20037;-73
2023/12/05 12:48:21;;;;;;;13.25;6.18;;;;;;;;;;6123299;23;20319;-73
2023/12/05 12:50:47;;;;;;;11.80;5.93;;;;;;;;;;6098697;23;20012;-75
2023/12/05 12:53:13;;;;;;;11.18;5.82;;;;;;;;;;6124568;23;20002;-73
2023/12/05 12:55:39;;;;;;;19.83;6.30;;;;;;;;;;6123283;23;20040;-73
2023/12/05 12:58:05;;;;;;;15.80;6.63;;;;;;;;;;6125077;23;20168;-73
2023/12/05 13:00:38;;;;;;;13.13;6.13;;;;;;;;;;6123186;23;20022;-74
2023/12/05 13:03:06;;;;;;;15.07;7.28;;;;;;;;;;6097866;23;20033;-73
2023/12/05 13:05:36;;;;;;;20.08;7.65;;;;;;;;;;6098417;23;20344;-73
2023/12/05 13:08:07;;;;;;;16.40;7.63;;;;;;;;;;6124577;23;20033;-72
2023/12/05 13:10:36;;;;;;;16.73;7.60;;;;;;;;;;6124158;23;20010;-75
2023/12/05 13:13:02;;;;;;;16.58;8.90;;;;;;;;;;6099167;23;20151;-73
2023/12/05 13:15:29;;;;;;;12.95;7.40;;;;;;;;;;6123483;23;20116;-74
2023/12/05 13:18:03;;;;;;;12.88;7.45;;;;;;;;;;6124037;23;20322;-73
2023/12/05 13:20:46;;;;;;;12.80;7.72;;;;;;;;;;6123996;23;20014;-73
2023/12/05 13:23:12;;;;;;;18.20;7.78;;;;;;;;;;6124170;23;20045;-72
2023/12/05 13:25:37;;;;;;;18.60;8.40;;;;;;;;;;6124337;23;20006;-73
2023/12/05 13:28:03;;;;;;;12.02;8.02;;;;;;;;;;6124719;23;20444;-73
2023/12/05 13:30:30;;;;;;;15.48;8.98;;;;;;;;;;6123646;23;20005;-73
2023/12/05 13:32:56;;;;;;;19.67;10.10;;;;;;;;;;6097737;23;20100;-72
2023/12/05 13:35:22;;;;;;;20.42;10.05;;;;;;;;;;6123231;23;20002;-72
2023/12/05 13:37:48;;;;;;;14.27;8.60;;;;;;;;;;6074936;23;20113;-72
2023/12/05 13:40:13;;;;;;;15.30;9.48;;;;;;;;;;6097260;23;20012;-73
2023/12/05 13:42:39;;;;;;;20.58;10.90;;;;;;;;;;6097752;23;20498;-73
2023/12/05 13:45:05;;;;;;;21.75;10.40;;;;;;;;;;6123299;23;20433;-72
2023/12/05 13:47:32;;;;;;;17.52;9.68;;;;;;;;;;6121823;23;20081;-72
2023/12/05 13:49:58;;;;;;;19.98;9.80;;;;;;;;;;6122344;23;20436;-74
2023/12/05 13:52:24;;;;;;;17.10;9.68;;;;;;;;;;6121092;23;20037;-73
2023/12/05 13:54:50;;;;;;;18.40;9.88;;;;;;;;;;6122541;23;20009;-73
2023/12/05 13:57:16;;;;;;;24.83;13.32;;;;;;;;;;6096513;23;20549;-73
2023/12/05 13:59:42;;;;;;;19.30;12.23;;;;;;;;;;6123914;23;20022;-73
2023/12/05 14:02:08;;;;;;;22.88;10.55;;;;;;;;;;6123320;23;20046;-73
2023/12/05 14:04:33;;;;;;;20.83;10.20;;;;;;;;;;6123494;23;20006;-73
2023/12/05 14:07:00;;;;;;;20.63;9.93;;;;;;;;;;6122336;23;20341;-73
2023/12/05 14:09:26;;;;;;;18.92;10.75;;;;;;;;;;6123463;23;20118;-72
2023/12/05 14:11:51;;;;;;;19.55;10.77;;;;;;;;;;6123576;23;20350;-74
2023/12/05 14:14:17;;;;;;;18.35;9.98;;;;;;;;;;6122092;23;20028;-73
2023/12/05 14:16:43;;;;;;;22.23;11.90;;;;;;;;;;6122938;23;20032;-73
2023/12/05 14:19:10;;;;;;;18.60;11.50;;;;;;;;;;6122781;23;20002;-72
2023/12/05 14:21:36;;;;;;;21.38;13.32;;;;;;;;;;6122883;23;20017;-70
2023/12/05 14:24:01;;;;;;;21.90;12.48;;;;;;;;;;6121702;23;20026;-72
2023/12/05 14:26:27;;;;;;;30.15;13.93;;;;;;;;;;6121383;23;20097;-72